sensor_id;sensor_type;location;lat;lon;timestamp;pressure;altitude;pressure_sealevel;temperature;humidity
40850;BME280;26571;41.610;25.380;2023-04-08T00:01:00;98546.88;;;6.49;83.83
40850;BME280;26571;41.610;25.380;2023-04-08T00:03:25;98549.34;;;6.51;83.50
40850;BME280;26571;41.610;25.380;2023-04-08T00:05:50;98547.69;;;6.59;83.25
40850;BME280;26571;41.610;25.380;2023-04-08T00:08:16;98550.06;;;6.62;82.43
40850;BME280;26571;41.610;25.380;2023-04-08T00:10:41;98547.44;;;6.62;82.47
40850;BME280;26571;41.610;25.380;2023-04-08T00:13:06;98556.50;;;6.68;81.99
40850;BME280;26571;41.610;25.380;2023-04-08T00:15:31;98551.00;;;6.61;82.38
40850;BME280;26571;41.610;25.380;2023-04-08T00:17:57;98554.03;;;6.57;82.86
40850;BME280;26571;41.610;25.380;2023-04-08T00:20:22;98556.78;;;6.55;82.69
40850;BME280;26571;41.610;25.380;2023-04-08T00:22:48;98562.00;;;6.45;81.93
40850;BME280;26571;41.610;25.380;2023-04-08T00:25:13;98561.72;;;6.39;82.57
40850;BME280;26571;41.610;25.380;2023-04-08T00:27:38;98561.31;;;6.43;82.86
40850;BME280;26571;41.610;25.380;2023-04-08T00:30:04;98551.97;;;6.51;81.95
40850;BME280;26571;41.610;25.380;2023-04-08T00:32:30;98550.16;;;6.41;81.40
40850;BME280;26571;41.610;25.380;2023-04-08T00:34:55;98556.22;;;6.32;81.55
40850;BME280;26571;41.610;25.380;2023-04-08T00:37:20;98564.34;;;6.29;81.72
40850;BME280;26571;41.610;25.380;2023-04-08T00:39:47;98572.31;;;6.28;81.98
40850;BME280;26571;41.610;25.380;2023-04-08T00:42:12;98573.38;;;6.15;82.47
40850;BME280;26571;41.610;25.380;2023-04-08T00:44:37;98566.06;;;6.00;83.12
40850;BME280;26571;41.610;25.380;2023-04-08T00:47:03;98573.44;;;5.85;84.22
40850;BME280;26571;41.610;25.380;2023-04-08T00:49:29;98570.81;;;5.85;85.43
40850;BME280;26571;41.610;25.380;2023-04-08T00:51:55;98578.66;;;5.85;85.37
40850;BME280;26571;41.610;25.380;2023-04-08T00:54:20;98575.63;;;5.80;85.95
40850;BME280;26571;41.610;25.380;2023-04-08T00:56:45;98575.06;;;5.86;85.57
40850;BME280;26571;41.610;25.380;2023-04-08T00:59:11;98582.22;;;5.84;85.58
40850;BME280;26571;41.610;25.380;2023-04-08T01:01:43;98581.53;;;5.82;84.94
40850;BME280;26571;41.610;25.380;2023-04-08T01:06:40;98581.47;;;5.62;85.12
40850;BME280;26571;41.610;25.380;2023-04-08T01:09:11;98586.41;;;5.65;85.79
40850;BME280;26571;41.610;25.380;2023-04-08T01:11:39;98591.25;;;5.70;85.60
40850;BME280;26571;41.610;25.380;2023-04-08T01:14:06;98595.13;;;5.76;85.73
40850;BME280;26571;41.610;25.380;2023-04-08T01:16:34;98582.91;;;5.86;84.40
40850;BME280;26571;41.610;25.380;2023-04-08T01:19:01;98592.13;;;5.90;83.67
40850;BME280;26571;41.610;25.380;2023-04-08T01:21:27;98592.44;;;5.87;82.36
40850;BME280;26571;41.610;25.380;2023-04-08T01:24:05;98591.03;;;5.83;82.52
40850;BME280;26571;41.610;25.380;2023-04-08T01:26:33;98596.63;;;5.68;82.83
40850;BME280;26571;41.610;25.380;2023-04-08T01:29:00;98591.53;;;5.77;82.92
40850;BME280;26571;41.610;25.380;2023-04-08T01:31:25;98580.84;;;5.80;82.53
40850;BME280;26571;41.610;25.380;2023-04-08T01:33:51;98583.56;;;5.68;83.22
40850;BME280;26571;41.610;25.380;2023-04-08T01:36:16;98583.38;;;5.60;84.30
40850;BME280;26571;41.610;25.380;2023-04-08T01:38:43;98584.63;;;5.66;83.63
40850;BME280;26571;41.610;25.380;2023-04-08T01:41:10;98594.53;;;5.62;83.79
40850;BME280;26571;41.610;25.380;2023-04-08T01:43:35;98592.41;;;5.56;84.38
40850;BME280;26571;41.610;25.380;2023-04-08T01:46:03;98591.47;;;5.57;83.68
40850;BME280;26571;41.610;25.380;2023-04-08T01:48:29;98595.25;;;5.43;83.52
40850;BME280;26571;41.610;25.380;2023-04-08T01:50:55;98593.03;;;5.39;83.75
40850;BME280;26571;41.610;25.380;2023-04-08T01:53:21;98593.81;;;5.30;83.72
40850;BME280;26571;41.610;25.380;2023-04-08T01:55:47;98597.91;;;5.23;84.44
40850;BME280;26571;41.610;25.380;2023-04-08T01:58:19;98596.34;;;5.20;83.87
40850;BME280;26571;41.610;25.380;2023-04-08T02:00:45;98595.41;;;5.21;83.92
40850;BME280;26571;41.610;25.380;2023-04-08T02:03:11;98598.16;;;5.19;83.99
40850;BME280;26571;41.610;25.380;2023-04-08T02:05:36;98603.56;;;5.28;84.10
40850;BME280;26571;41.610;25.380;2023-04-08T02:08:01;98599.72;;;5.32;83.96
40850;BME280;26571;41.610;25.380;2023-04-08T02:10:27;98606.84;;;5.30;83.83
40850;BME280;26571;41.610;25.380;2023-04-08T02:12:52;98605.91;;;5.31;83.26
40850;BME280;26571;41.610;25.380;2023-04-08T02:15:18;98610.69;;;5.26;82.81
40850;BME280;26571;41.610;25.380;2023-04-08T02:17:44;98609.16;;;5.23;82.97
40850;BME280;26571;41.610;25.380;2023-04-08T02:20:18;98609.91;;;5.35;82.51
40850;BME280;26571;41.610;25.380;2023-04-08T02:22:47;98613.47;;;5.34;82.44
40850;BME280;26571;41.610;25.380;2023-04-08T02:25:14;98609.28;;;5.22;82.91
40850;BME280;26571;41.610;25.380;2023-04-08T02:27:40;98610.50;;;5.17;82.88
40850;BME280;26571;41.610;25.380;2023-04-08T02:30:07;98604.13;;;5.10;84.33
40850;BME280;26571;41.610;25.380;2023-04-08T02:32:33;98606.41;;;5.25;83.26
40850;BME280;26571;41.610;25.380;2023-04-08T02:35:00;98602.59;;;5.29;82.90
40850;BME280;26571;41.610;25.380;2023-04-08T02:37:27;98601.63;;;5.30;82.32
40850;BME280;26571;41.610;25.380;2023-04-08T02:39:52;98601.44;;;5.22;82.32
40850;BME280;26571;41.610;25.380;2023-04-08T02:42:17;98603.59;;;5.16;83.16
40850;BME280;26571;41.610;25.380;2023-04-08T02:44:43;98601.72;;;5.18;84.14
40850;BME280;26571;41.610;25.380;2023-04-08T02:47:08;98613.13;;;5.17;84.29
40850;BME280;26571;41.610;25.380;2023-04-08T02:49:33;98609.47;;;5.09;85.60
40850;BME280;26571;41.610;25.380;2023-04-08T02:51:58;98613.22;;;4.74;88.29
40850;BME280;26571;41.610;25.380;2023-04-08T02:54:24;98615.88;;;4.52;90.62
40850;BME280;26571;41.610;25.380;2023-04-08T02:56:49;98617.56;;;4.41;92.09
40850;BME280;26571;41.610;25.380;2023-04-08T02:59:14;98619.16;;;4.33;93.13
40850;BME280;26571;41.610;25.380;2023-04-08T03:01:40;98613.16;;;4.10;95.90
40850;BME280;26571;41.610;25.380;2023-04-08T03:04:05;98609.94;;;4.06;96.83
40850;BME280;26571;41.610;25.380;2023-04-08T03:06:30;98624.16;;;4.13;97.10
40850;BME280;26571;41.610;25.380;2023-04-08T03:08:56;98618.22;;;4.23;97.63
40850;BME280;26571;41.610;25.380;2023-04-08T03:11:21;98624.28;;;4.23;97.56
40850;BME280;26571;41.610;25.380;2023-04-08T03:13:46;98624.59;;;4.30;97.04
40850;BME280;26571;41.610;25.380;2023-04-08T03:16:12;98627.44;;;4.38;97.43
40850;BME280;26571;41.610;25.380;2023-04-08T03:18:37;98625.75;;;4.48;97.31
40850;BME280;26571;41.610;25.380;2023-04-08T03:21:02;98634.13;;;4.52;96.04
40850;BME280;26571;41.610;25.380;2023-04-08T03:23:27;98631.28;;;4.55;96.41
40850;BME280;26571;41.610;25.380;2023-04-08T03:25:53;98625.19;;;4.65;95.09
40850;BME280;26571;41.610;25.380;2023-04-08T03:28:18;98635.59;;;4.77;94.44
40850;BME280;26571;41.610;25.380;2023-04-08T03:30:43;98629.91;;;4.83;93.95
40850;BME280;26571;41.610;25.380;2023-04-08T03:33:08;98635.56;;;4.88;93.82
40850;BME280;26571;41.610;25.380;2023-04-08T03:35:34;98640.28;;;4.94;93.73
40850;BME280;26571;41.610;25.380;2023-04-08T03:37:59;98637.88;;;5.02;93.10
40850;BME280;26571;41.610;25.380;2023-04-08T03:40:25;98635.56;;;5.09;92.33
40850;BME280;26571;41.610;25.380;2023-04-08T03:42:50;98637.44;;;5.18;91.50
40850;BME280;26571;41.610;25.380;2023-04-08T03:45:15;98646.19;;;5.17;90.92
40850;BME280;26571;41.610;25.380;2023-04-08T03:47:41;98644.53;;;5.16;91.21
40850;BME280;26571;41.610;25.380;2023-04-08T03:50:06;98644.97;;;5.21;89.67
40850;BME280;26571;41.610;25.380;2023-04-08T03:52:31;98635.19;;;5.13;88.96
40850;BME280;26571;41.610;25.380;2023-04-08T03:54:57;98644.22;;;5.09;89.26
40850;BME280;26571;41.610;25.380;2023-04-08T03:57:22;98631.03;;;5.11;89.51
40850;BME280;26571;41.610;25.380;2023-04-08T03:59:47;98636.41;;;5.09;89.25
40850;BME280;26571;41.610;25.380;2023-04-08T04:02:12;98630.09;;;5.12;89.32
40850;BME280;26571;41.610;25.380;2023-04-08T04:04:38;98632.22;;;5.18;88.25
40850;BME280;26571;41.610;25.380;2023-04-08T04:07:03;98635.50;;;5.20;87.71
40850;BME280;26571;41.610;25.380;2023-04-08T04:09:28;98641.53;;;5.21;87.89
40850;BME280;26571;41.610;25.380;2023-04-08T04:11:53;98650.47;;;5.39;88.13
40850;BME280;26571;41.610;25.380;2023-04-08T04:14:19;98651.28;;;5.60;87.97
40850;BME280;26571;41.610;25.380;2023-04-08T04:16:44;98650.16;;;5.84;83.66
40850;BME280;26571;41.610;25.380;2023-04-08T04:19:09;98649.97;;;6.06;82.15
40850;BME280;26571;41.610;25.380;2023-04-08T04:21:35;98648.31;;;6.55;81.31
40850;BME280;26571;41.610;25.380;2023-04-08T04:24:00;98654.25;;;7.15;79.90
40850;BME280;26571;41.610;25.380;2023-04-08T04:26:25;98655.31;;;7.61;74.86
40850;BME280;26571;41.610;25.380;2023-04-08T04:28:51;98661.06;;;7.65;73.49
40850;BME280;26571;41.610;25.380;2023-04-08T04:31:17;98668.81;;;7.66;71.67
40850;BME280;26571;41.610;25.380;2023-04-08T04:33:42;98669.13;;;7.44;70.51
40850;BME280;26571;41.610;25.380;2023-04-08T04:36:07;98676.31;;;7.03;71.60
40850;BME280;26571;41.610;25.380;2023-04-08T04:38:32;98687.81;;;6.42;73.74
40850;BME280;26571;41.610;25.380;2023-04-08T04:40:58;98675.06;;;5.88;77.70
40850;BME280;26571;41.610;25.380;2023-04-08T04:43:23;98667.50;;;5.64;79.57
40850;BME280;26571;41.610;25.380;2023-04-08T04:45:48;98664.72;;;5.35;82.25
40850;BME280;26571;41.610;25.380;2023-04-08T04:48:13;98662.44;;;5.21;83.95
40850;BME280;26571;41.610;25.380;2023-04-08T04:50:39;98667.47;;;5.12;85.23
40850;BME280;26571;41.610;25.380;2023-04-08T04:53:05;98665.84;;;5.00;86.61
40850;BME280;26571;41.610;25.380;2023-04-08T04:55:30;98666.88;;;4.88;87.54
40850;BME280;26571;41.610;25.380;2023-04-08T04:57:56;98679.34;;;4.73;89.39
40850;BME280;26571;41.610;25.380;2023-04-08T05:00:21;98678.53;;;4.73;91.19
40850;BME280;26571;41.610;25.380;2023-04-08T05:02:46;98681.50;;;4.68;91.51
40850;BME280;26571;41.610;25.380;2023-04-08T05:05:11;98680.41;;;4.71;92.24
40850;BME280;26571;41.610;25.380;2023-04-08T05:07:37;98672.03;;;4.56;94.05
40850;BME280;26571;41.610;25.380;2023-04-08T05:10:03;98674.78;;;4.54;95.27
40850;BME280;26571;41.610;25.380;2023-04-08T05:12:28;98672.88;;;4.56;96.51
40850;BME280;26571;41.610;25.380;2023-04-08T05:14:54;98680.69;;;4.68;96.42
40850;BME280;26571;41.610;25.380;2023-04-08T05:17:19;98685.13;;;4.77;96.02
40850;BME280;26571;41.610;25.380;2023-04-08T05:19:44;98683.75;;;4.61;96.02
40850;BME280;26571;41.610;25.380;2023-04-08T05:22:09;98679.72;;;4.57;96.96
40850;BME280;26571;41.610;25.380;2023-04-08T05:24:35;98671.53;;;4.62;97.65
40850;BME280;26571;41.610;25.380;2023-04-08T05:27:00;98664.63;;;4.83;98.09
40850;BME280;26571;41.610;25.380;2023-04-08T05:29:25;98664.84;;;5.12;97.54
40850;BME280;26571;41.610;25.380;2023-04-08T05:31:51;98672.31;;;5.38;95.38
40850;BME280;26571;41.610;25.380;2023-04-08T05:34:16;98679.41;;;5.57;93.31
40850;BME280;26571;41.610;25.380;2023-04-08T05:36:46;98675.41;;;5.74;92.94
40850;BME280;26571;41.610;25.380;2023-04-08T05:39:12;98677.75;;;5.98;93.15
40850;BME280;26571;41.610;25.380;2023-04-08T05:41:37;98680.03;;;6.21;92.19
40850;BME280;26571;41.610;25.380;2023-04-08T05:44:02;98677.47;;;6.41;90.56
40850;BME280;26571;41.610;25.380;2023-04-08T05:46:28;98678.47;;;6.59;88.00
40850;BME280;26571;41.610;25.380;2023-04-08T05:48:53;98684.56;;;6.69;87.55
40850;BME280;26571;41.610;25.380;2023-04-08T05:51:18;98681.38;;;6.76;86.62
40850;BME280;26571;41.610;25.380;2023-04-08T05:53:44;98692.16;;;6.82;86.29
40850;BME280;26571;41.610;25.380;2023-04-08T05:56:09;98704.44;;;6.91;85.74
40850;BME280;26571;41.610;25.380;2023-04-08T05:58:35;98693.94;;;6.82;84.90
40850;BME280;26571;41.610;25.380;2023-04-08T06:01:00;98695.03;;;6.79;85.33
40850;BME280;26571;41.610;25.380;2023-04-08T06:03:25;98703.81;;;6.59;86.13
40850;BME280;26571;41.610;25.380;2023-04-08T06:05:50;98705.94;;;6.34;88.46
40850;BME280;26571;41.610;25.380;2023-04-08T06:08:16;98710.56;;;5.69;92.08
40850;BME280;26571;41.610;25.380;2023-04-08T06:10:47;98713.81;;;5.41;95.43
40850;BME280;26571;41.610;25.380;2023-04-08T06:13:12;98721.09;;;5.05;99.44
40850;BME280;26571;41.610;25.380;2023-04-08T06:15:37;98715.78;;;4.96;100.00
40850;BME280;26571;41.610;25.380;2023-04-08T06:18:03;98721.75;;;4.86;100.00
40850;BME280;26571;41.610;25.380;2023-04-08T06:20:28;98723.25;;;5.00;100.00
40850;BME280;26571;41.610;25.380;2023-04-08T06:22:54;98712.06;;;5.09;100.00
40850;BME280;26571;41.610;25.380;2023-04-08T06:25:19;98710.34;;;4.99;100.00
40850;BME280;26571;41.610;25.380;2023-04-08T06:27:44;98720.84;;;5.08;100.00
40850;BME280;26571;41.610;25.380;2023-04-08T06:30:10;98710.81;;;5.25;100.00
40850;BME280;26571;41.610;25.380;2023-04-08T06:32:35;98721.50;;;5.22;100.00
40850;BME280;26571;41.610;25.380;2023-04-08T06:35:00;98718.41;;;5.28;100.00
40850;BME280;26571;41.610;25.380;2023-04-08T06:37:25;98715.78;;;5.69;100.00
40850;BME280;26571;41.610;25.380;2023-04-08T06:39:51;98716.94;;;6.28;100.00
40850;BME280;26571;41.610;25.380;2023-04-08T06:42:16;98722.41;;;6.65;99.84
40850;BME280;26571;41.610;25.380;2023-04-08T06:44:41;98718.88;;;7.05;96.27
40850;BME280;26571;41.610;25.380;2023-04-08T06:47:06;98716.00;;;7.37;92.58
40850;BME280;26571;41.610;25.380;2023-04-08T06:49:32;98714.69;;;7.70;90.36
40850;BME280;26571;41.610;25.380;2023-04-08T06:51:57;98717.59;;;7.77;88.09
40850;BME280;26571;41.610;25.380;2023-04-08T06:54:22;98717.97;;;7.92;85.71
40850;BME280;26571;41.610;25.380;2023-04-08T06:56:47;98715.63;;;7.89;86.08
40850;BME280;26571;41.610;25.380;2023-04-08T06:59:13;98722.47;;;8.09;84.97
40850;BME280;26571;41.610;25.380;2023-04-08T07:01:38;98718.81;;;7.92;85.42
40850;BME280;26571;41.610;25.380;2023-04-08T07:04:03;98714.38;;;7.93;85.28
40850;BME280;26571;41.610;25.380;2023-04-08T07:06:29;98716.63;;;8.15;85.29
40850;BME280;26571;41.610;25.380;2023-04-08T07:08:54;98722.44;;;8.56;84.95
40850;BME280;26571;41.610;25.380;2023-04-08T07:11:19;98726.41;;;8.60;80.80
40850;BME280;26571;41.610;25.380;2023-04-08T07:13:45;98722.41;;;8.66;80.92
40850;BME280;26571;41.610;25.380;2023-04-08T07:16:10;98727.31;;;8.69;79.62
40850;BME280;26571;41.610;25.380;2023-04-08T07:18:35;98722.41;;;8.84;79.89
40850;BME280;26571;41.610;25.380;2023-04-08T07:21:01;98724.84;;;9.13;79.29
40850;BME280;26571;41.610;25.380;2023-04-08T07:23:27;98717.91;;;9.47;77.87
40850;BME280;26571;41.610;25.380;2023-04-08T07:25:52;98715.72;;;9.87;76.33
40850;BME280;26571;41.610;25.380;2023-04-08T07:28:18;98718.22;;;10.22;74.09
40850;BME280;26571;41.610;25.380;2023-04-08T07:30:43;98714.78;;;10.56;72.24
40850;BME280;26571;41.610;25.380;2023-04-08T07:33:09;98708.66;;;10.90;70.44
40850;BME280;26571;41.610;25.380;2023-04-08T07:35:34;98708.00;;;11.28;68.32
40850;BME280;26571;41.610;25.380;2023-04-08T07:37:59;98712.63;;;11.67;67.62
40850;BME280;26571;41.610;25.380;2023-04-08T07:40:25;98713.25;;;12.10;66.06
40850;BME280;26571;41.610;25.380;2023-04-08T07:42:50;98716.16;;;12.31;61.89
40850;BME280;26571;41.610;25.380;2023-04-08T07:45:15;98713.31;;;11.94;61.34
40850;BME280;26571;41.610;25.380;2023-04-08T07:47:40;98705.84;;;11.81;63.50
40850;BME280;26571;41.610;25.380;2023-04-08T07:50:06;98706.91;;;12.35;63.19
40850;BME280;26571;41.610;25.380;2023-04-08T07:52:32;98694.69;;;12.74;63.27
40850;BME280;26571;41.610;25.380;2023-04-08T07:54:57;98695.78;;;13.10;61.90
40850;BME280;26571;41.610;25.380;2023-04-08T07:57:22;98701.91;;;13.03;58.46
40850;BME280;26571;41.610;25.380;2023-04-08T07:59:48;98699.66;;;13.00;59.47
40850;BME280;26571;41.610;25.380;2023-04-08T08:02:13;98690.72;;;13.47;59.82
40850;BME280;26571;41.610;25.380;2023-04-08T08:04:38;98691.63;;;14.06;58.44
40850;BME280;26571;41.610;25.380;2023-04-08T08:07:03;98690.34;;;14.46;58.85
40850;BME280;26571;41.610;25.380;2023-04-08T08:09:29;98692.53;;;15.09;55.01
40850;BME280;26571;41.610;25.380;2023-04-08T08:11:54;98695.97;;;15.31;51.22
40850;BME280;26571;41.610;25.380;2023-04-08T08:14:20;98682.28;;;15.48;52.79
40850;BME280;26571;41.610;25.380;2023-04-08T08:16:45;98687.69;;;15.83;51.14
40850;BME280;26571;41.610;25.380;2023-04-08T08:19:11;98681.94;;;16.14;50.55
40850;BME280;26571;41.610;25.380;2023-04-08T08:21:38;98684.56;;;16.49;49.93
40850;BME280;26571;41.610;25.380;2023-04-08T08:24:03;98688.78;;;16.71;50.70
40850;BME280;26571;41.610;25.380;2023-04-08T08:26:29;98682.09;;;16.95;49.13
40850;BME280;26571;41.610;25.380;2023-04-08T08:28:54;98672.69;;;16.93;48.41
40850;BME280;26571;41.610;25.380;2023-04-08T08:31:19;98676.59;;;17.03;45.87
40850;BME280;26571;41.610;25.380;2023-04-08T08:33:45;98676.84;;;17.22;44.69
40850;BME280;26571;41.610;25.380;2023-04-08T08:36:11;98672.94;;;17.44;45.69
40850;BME280;26571;41.610;25.380;2023-04-08T08:38:37;98666.19;;;17.88;44.04
40850;BME280;26571;41.610;25.380;2023-04-08T08:41:02;98665.16;;;18.02;42.84
40850;BME280;26571;41.610;25.380;2023-04-08T08:43:28;98661.00;;;18.20;41.60
40850;BME280;26571;41.610;25.380;2023-04-08T08:45:57;98654.84;;;18.26;44.23
40850;BME280;26571;41.610;25.380;2023-04-08T08:48:23;98662.97;;;18.44;42.44
40850;BME280;26571;41.610;25.380;2023-04-08T08:50:48;98663.31;;;18.54;38.80
40850;BME280;26571;41.610;25.380;2023-04-08T08:53:13;98664.34;;;17.95;40.88
40850;BME280;26571;41.610;25.380;2023-04-08T08:55:39;98658.19;;;17.95;41.63
40850;BME280;26571;41.610;25.380;2023-04-08T08:58:04;98661.03;;;18.06;40.11
40850;BME280;26571;41.610;25.380;2023-04-08T09:03:05;98662.22;;;18.30;39.49
40850;BME280;26571;41.610;25.380;2023-04-08T09:05:50;98660.22;;;18.13;39.87
40850;BME280;26571;41.610;25.380;2023-04-08T09:08:32;98655.63;;;18.33;40.36
40850;BME280;26571;41.610;25.380;2023-04-08T09:11:11;98652.66;;;18.54;40.60
40850;BME280;26571;41.610;25.380;2023-04-08T09:13:37;98653.16;;;18.90;42.11
40850;BME280;26571;41.610;25.380;2023-04-08T09:16:04;98654.44;;;18.74;38.03
40850;BME280;26571;41.610;25.380;2023-04-08T09:18:30;98656.38;;;18.53;36.54
40850;BME280;26571;41.610;25.380;2023-04-08T09:20:55;98651.88;;;17.82;37.54
40850;BME280;26571;41.610;25.380;2023-04-08T09:23:20;98653.28;;;17.58;40.27
40850;BME280;26571;41.610;25.380;2023-04-08T09:25:45;98654.13;;;17.52;37.87
40850;BME280;26571;41.610;25.380;2023-04-08T09:28:20;98662.31;;;17.44;39.18
40850;BME280;26571;41.610;25.380;2023-04-08T09:30:45;98655.94;;;17.65;40.73
40850;BME280;26571;41.610;25.380;2023-04-08T09:33:11;98656.53;;;16.94;39.72
40850;BME280;26571;41.610;25.380;2023-04-08T09:35:37;98661.09;;;16.52;41.30
40850;BME280;26571;41.610;25.380;2023-04-08T09:38:02;98648.44;;;16.68;41.06
40850;BME280;26571;41.610;25.380;2023-04-08T09:40:28;98642.84;;;17.11;42.66
40850;BME280;26571;41.610;25.380;2023-04-08T09:42:56;98649.19;;;17.63;42.07
40850;BME280;26571;41.610;25.380;2023-04-08T09:45:27;98643.47;;;17.59;39.16
40850;BME280;26571;41.610;25.380;2023-04-08T09:47:56;98642.22;;;17.35;39.25
40850;BME280;26571;41.610;25.380;2023-04-08T09:50:30;98635.25;;;16.81;39.44
40850;BME280;26571;41.610;25.380;2023-04-08T09:53:00;98640.59;;;17.08;42.18
40850;BME280;26571;41.610;25.380;2023-04-08T09:55:26;98627.50;;;17.52;42.63
40850;BME280;26571;41.610;25.380;2023-04-08T09:57:58;98633.25;;;17.76;41.08
40850;BME280;26571;41.610;25.380;2023-04-08T10:00:29;98630.78;;;17.81;38.48
40850;BME280;26571;41.610;25.380;2023-04-08T10:05:24;98628.06;;;18.52;37.75
40850;BME280;26571;41.610;25.380;2023-04-08T10:07:50;98624.00;;;18.88;37.51
40850;BME280;26571;41.610;25.380;2023-04-08T10:10:15;98616.59;;;19.22;37.11
40850;BME280;26571;41.610;25.380;2023-04-08T10:12:41;98614.31;;;19.25;37.13
40850;BME280;26571;41.610;25.380;2023-04-08T10:17:54;98609.09;;;18.80;37.20
40850;BME280;26571;41.610;25.380;2023-04-08T10:22:57;98604.44;;;18.18;36.99
40850;BME280;26571;41.610;25.380;2023-04-08T10:27:55;98598.19;;;17.72;36.00
40850;BME280;26571;41.610;25.380;2023-04-08T10:32:52;98602.31;;;17.62;34.83
40850;BME280;26571;41.610;25.380;2023-04-08T10:35:27;98598.81;;;17.54;32.77
40850;BME280;26571;41.610;25.380;2023-04-08T10:37:52;98598.81;;;17.81;33.80
40850;BME280;26571;41.610;25.380;2023-04-08T10:40:18;98589.31;;;18.12;35.95
40850;BME280;26571;41.610;25.380;2023-04-08T10:42:43;98595.78;;;18.29;35.18
40850;BME280;26571;41.610;25.380;2023-04-08T10:45:09;98586.94;;;17.77;33.97
40850;BME280;26571;41.610;25.380;2023-04-08T10:47:34;98581.22;;;17.67;33.67
40850;BME280;26571;41.610;25.380;2023-04-08T10:50:10;98582.28;;;17.13;35.88
40850;BME280;26571;41.610;25.380;2023-04-08T10:52:36;98577.16;;;17.18;36.82
40850;BME280;26571;41.610;25.380;2023-04-08T10:55:09;98582.09;;;17.21;37.19
40850;BME280;26571;41.610;25.380;2023-04-08T10:57:36;98575.06;;;17.60;37.60
40850;BME280;26571;41.610;25.380;2023-04-08T11:00:01;98576.72;;;17.47;36.31
40850;BME280;26571;41.610;25.380;2023-04-08T11:02:32;98560.56;;;17.42;36.34
40850;BME280;26571;41.610;25.380;2023-04-08T11:04:58;98560.38;;;17.37;36.22
40850;BME280;26571;41.610;25.380;2023-04-08T11:07:24;98553.38;;;17.76;37.62
40850;BME280;26571;41.610;25.380;2023-04-08T11:09:49;98569.84;;;18.04;35.27
40850;BME280;26571;41.610;25.380;2023-04-08T11:12:15;98558.00;;;18.00;35.11
40850;BME280;26571;41.610;25.380;2023-04-08T11:14:43;98559.09;;;17.60;33.53
40850;BME280;26571;41.610;25.380;2023-04-08T11:17:08;98556.66;;;17.51;33.69
40850;BME280;26571;41.610;25.380;2023-04-08T11:19:34;98548.69;;;17.38;34.22
40850;BME280;26571;41.610;25.380;2023-04-08T11:22:01;98542.50;;;17.57;34.99
40850;BME280;26571;41.610;25.380;2023-04-08T11:24:26;98543.94;;;17.67;35.22
40850;BME280;26571;41.610;25.380;2023-04-08T11:26:52;98540.25;;;17.54;35.58
40850;BME280;26571;41.610;25.380;2023-04-08T11:29:18;98537.78;;;17.73;35.70
40850;BME280;26571;41.610;25.380;2023-04-08T11:31:45;98538.97;;;17.83;35.92
40850;BME280;26571;41.610;25.380;2023-04-08T11:34:12;98532.53;;;18.04;36.20
40850;BME280;26571;41.610;25.380;2023-04-08T11:36:45;98526.63;;;18.02;34.80
40850;BME280;26571;41.610;25.380;2023-04-08T11:39:11;98525.53;;;18.17;35.11
40850;BME280;26571;41.610;25.380;2023-04-08T11:41:37;98528.38;;;18.22;34.55
40850;BME280;26571;41.610;25.380;2023-04-08T11:44:03;98527.16;;;18.18;33.76
40850;BME280;26571;41.610;25.380;2023-04-08T11:46:30;98525.78;;;18.08;34.50
40850;BME280;26571;41.610;25.380;2023-04-08T11:49:05;98520.44;;;18.08;33.84
40850;BME280;26571;41.610;25.380;2023-04-08T11:51:31;98524.03;;;17.82;34.55
40850;BME280;26571;41.610;25.380;2023-04-08T11:53:58;98525.66;;;17.83;34.73
40850;BME280;26571;41.610;25.380;2023-04-08T11:56:24;98524.31;;;17.48;35.88
40850;BME280;26571;41.610;25.380;2023-04-08T11:58:49;98513.72;;;16.95;35.84
40850;BME280;26571;41.610;25.380;2023-04-08T12:01:15;98512.81;;;16.35;37.30
40850;BME280;26571;41.610;25.380;2023-04-08T12:03:57;98518.59;;;15.90;39.00
40850;BME280;26571;41.610;25.380;2023-04-08T12:06:22;98513.44;;;15.41;40.01
40850;BME280;26571;41.610;25.380;2023-04-08T12:08:48;98510.78;;;15.41;41.13
40850;BME280;26571;41.610;25.380;2023-04-08T12:11:13;98513.06;;;15.16;42.17
40850;BME280;26571;41.610;25.380;2023-04-08T12:13:40;98505.53;;;15.13;41.73
40850;BME280;26571;41.610;25.380;2023-04-08T12:16:05;98510.38;;;15.09;42.85
40850;BME280;26571;41.610;25.380;2023-04-08T12:18:30;98510.59;;;15.08;43.68
40850;BME280;26571;41.610;25.380;2023-04-08T12:20:56;98508.94;;;15.07;42.87
40850;BME280;26571;41.610;25.380;2023-04-08T12:23:21;98512.50;;;14.92;42.25
40850;BME280;26571;41.610;25.380;2023-04-08T12:25:46;98510.34;;;14.81;42.74
40850;BME280;26571;41.610;25.380;2023-04-08T12:28:11;98505.53;;;14.63;43.41
40850;BME280;26571;41.610;25.380;2023-04-08T12:30:37;98504.31;;;14.44;44.00
40850;BME280;26571;41.610;25.380;2023-04-08T12:33:02;98502.16;;;14.33;44.43
40850;BME280;26571;41.610;25.380;2023-04-08T12:35:27;98498.88;;;14.31;45.04
40850;BME280;26571;41.610;25.380;2023-04-08T12:37:53;98502.66;;;14.43;47.14
40850;BME280;26571;41.610;25.380;2023-04-08T12:40:18;98509.69;;;14.51;45.96
40850;BME280;26571;41.610;25.380;2023-04-08T12:42:43;98498.75;;;14.39;45.55
40850;BME280;26571;41.610;25.380;2023-04-08T12:45:09;98500.38;;;14.19;47.08
40850;BME280;26571;41.610;25.380;2023-04-08T12:47:34;98498.66;;;14.11;48.03
40850;BME280;26571;41.610;25.380;2023-04-08T12:49:59;98504.41;;;14.15;49.26
40850;BME280;26571;41.610;25.380;2023-04-08T12:52:25;98499.47;;;14.12;47.88
40850;BME280;26571;41.610;25.380;2023-04-08T12:54:50;98493.06;;;14.21;49.08
40850;BME280;26571;41.610;25.380;2023-04-08T12:57:15;98503.41;;;14.16;48.71
40850;BME280;26571;41.610;25.380;2023-04-08T12:59:41;98490.16;;;14.16;49.24
40850;BME280;26571;41.610;25.380;2023-04-08T13:02:06;98491.09;;;14.08;49.54
40850;BME280;26571;41.610;25.380;2023-04-08T13:04:32;98488.81;;;14.05;49.23
40850;BME280;26571;41.610;25.380;2023-04-08T13:06:57;98487.97;;;13.83;49.93